sensor_id;sensor_type;location;lat;lon;timestamp;P1;durP1;ratioP1;P2;durP2;ratioP2
50301;SDS011;36550;50.472;19.744;2022-11-14T00:00:23;33.53;;;15.30;;
50301;SDS011;36550;50.472;19.744;2022-11-14T00:03:09;41.63;;;17.42;;
50301;SDS011;36550;50.472;19.744;2022-11-14T00:05:54;37.70;;;15.95;;
50301;SDS011;36550;50.472;19.744;2022-11-14T00:08:39;30.25;;;14.13;;
50301;SDS011;36550;50.472;19.744;2022-11-14T00:11:23;30.32;;;14.35;;
50301;SDS011;36550;50.472;19.744;2022-11-14T00:14:08;32.73;;;14.68;;
50301;SDS011;36550;50.472;19.744;2022-11-14T00:16:53;32.23;;;14.78;;
50301;SDS011;36550;50.472;19.744;2022-11-14T00:19:37;37.23;;;16.20;;
50301;SDS011;36550;50.472;19.744;2022-11-14T00:22:22;32.80;;;14.80;;
50301;SDS011;36550;50.472;19.744;2022-11-14T00:25:06;36.77;;;14.28;;
50301;SDS011;36550;50.472;19.744;2022-11-14T00:27:51;33.42;;;14.43;;
50301;SDS011;36550;50.472;19.744;2022-11-14T00:30:36;29.98;;;13.83;;
50301;SDS011;36550;50.472;19.744;2022-11-14T00:33:20;36.98;;;16.97;;
50301;SDS011;36550;50.472;19.744;2022-11-14T00:36:04;42.30;;;18.67;;
50301;SDS011;36550;50.472;19.744;2022-11-14T00:38:51;40.78;;;17.45;;
50301;SDS011;36550;50.472;19.744;2022-11-14T00:41:36;41.37;;;17.45;;
50301;SDS011;36550;50.472;19.744;2022-11-14T00:44:21;34.70;;;15.25;;
50301;SDS011;36550;50.472;19.744;2022-11-14T00:47:05;35.23;;;16.17;;
50301;SDS011;36550;50.472;19.744;2022-11-14T00:49:49;42.65;;;18.57;;
50301;SDS011;36550;50.472;19.744;2022-11-14T00:52:34;41.90;;;16.82;;
50301;SDS011;36550;50.472;19.744;2022-11-14T00:55:18;41.13;;;17.37;;
50301;SDS011;36550;50.472;19.744;2022-11-14T00:58:02;35.50;;;15.78;;
50301;SDS011;36550;50.472;19.744;2022-11-14T01:00:47;34.33;;;15.20;;
50301;SDS011;36550;50.472;19.744;2022-11-14T01:03:31;35.10;;;15.93;;
50301;SDS011;36550;50.472;19.744;2022-11-14T01:06:15;37.58;;;15.72;;
50301;SDS011;36550;50.472;19.744;2022-11-14T01:09:00;47.43;;;19.15;;
50301;SDS011;36550;50.472;19.744;2022-11-14T01:11:45;43.60;;;18.70;;
50301;SDS011;36550;50.472;19.744;2022-11-14T01:14:29;39.00;;;17.25;;
50301;SDS011;36550;50.472;19.744;2022-11-14T01:17:13;38.33;;;16.02;;
50301;SDS011;36550;50.472;19.744;2022-11-14T01:19:58;44.13;;;18.70;;
50301;SDS011;36550;50.472;19.744;2022-11-14T01:22:43;40.28;;;17.02;;
50301;SDS011;36550;50.472;19.744;2022-11-14T01:25:27;38.85;;;15.72;;
50301;SDS011;36550;50.472;19.744;2022-11-14T01:28:12;36.30;;;15.50;;
50301;SDS011;36550;50.472;19.744;2022-11-14T01:31:09;31.73;;;14.15;;
50301;SDS011;36550;50.472;19.744;2022-11-14T01:34:03;36.53;;;16.95;;
50301;SDS011;36550;50.472;19.744;2022-11-14T01:36:47;35.70;;;15.00;;
50301;SDS011;36550;50.472;19.744;2022-11-14T01:39:32;35.40;;;16.15;;
50301;SDS011;36550;50.472;19.744;2022-11-14T01:42:16;35.90;;;15.85;;
50301;SDS011;36550;50.472;19.744;2022-11-14T01:45:00;39.95;;;16.60;;
50301;SDS011;36550;50.472;19.744;2022-11-14T01:50:31;34.18;;;14.50;;
50301;SDS011;36550;50.472;19.744;2022-11-14T01:53:15;34.20;;;15.32;;
50301;SDS011;36550;50.472;19.744;2022-11-14T01:56:02;36.77;;;16.55;;
50301;SDS011;36550;50.472;19.744;2022-11-14T01:58:53;33.08;;;15.50;;
50301;SDS011;36550;50.472;19.744;2022-11-14T02:01:48;36.90;;;16.50;;
50301;SDS011;36550;50.472;19.744;2022-11-14T02:04:36;34.55;;;15.60;;
50301;SDS011;36550;50.472;19.744;2022-11-14T02:07:24;41.88;;;18.30;;
50301;SDS011;36550;50.472;19.744;2022-11-14T02:10:15;42.75;;;16.75;;
50301;SDS011;36550;50.472;19.744;2022-11-14T02:13:02;47.13;;;17.87;;
50301;SDS011;36550;50.472;19.744;2022-11-14T02:15:47;36.53;;;15.88;;
50301;SDS011;36550;50.472;19.744;2022-11-14T02:18:31;37.03;;;15.60;;
50301;SDS011;36550;50.472;19.744;2022-11-14T02:21:15;36.90;;;15.15;;
50301;SDS011;36550;50.472;19.744;2022-11-14T02:23:59;39.13;;;17.52;;
50301;SDS011;36550;50.472;19.744;2022-11-14T02:26:44;42.58;;;17.00;;
50301;SDS011;36550;50.472;19.744;2022-11-14T02:29:29;42.58;;;17.52;;
50301;SDS011;36550;50.472;19.744;2022-11-14T02:32:15;38.58;;;16.10;;
50301;SDS011;36550;50.472;19.744;2022-11-14T02:35:00;38.42;;;16.82;;
50301;SDS011;36550;50.472;19.744;2022-11-14T02:37:44;40.48;;;17.55;;
50301;SDS011;36550;50.472;19.744;2022-11-14T02:40:28;41.68;;;16.90;;
50301;SDS011;36550;50.472;19.744;2022-11-14T02:43:13;43.02;;;18.70;;
50301;SDS011;36550;50.472;19.744;2022-11-14T02:45:57;38.53;;;16.30;;
50301;SDS011;36550;50.472;19.744;2022-11-14T02:48:41;44.33;;;18.42;;
50301;SDS011;36550;50.472;19.744;2022-11-14T02:51:26;46.73;;;18.02;;
50301;SDS011;36550;50.472;19.744;2022-11-14T02:54:10;41.70;;;17.07;;
50301;SDS011;36550;50.472;19.744;2022-11-14T02:56:54;39.63;;;17.20;;
50301;SDS011;36550;50.472;19.744;2022-11-14T02:59:38;37.23;;;16.15;;
50301;SDS011;36550;50.472;19.744;2022-11-14T03:02:23;42.40;;;17.48;;
50301;SDS011;36550;50.472;19.744;2022-11-14T03:05:07;42.88;;;18.55;;
50301;SDS011;36550;50.472;19.744;2022-11-14T03:07:52;38.20;;;16.77;;
50301;SDS011;36550;50.472;19.744;2022-11-14T03:10:38;36.98;;;15.00;;
50301;SDS011;36550;50.472;19.744;2022-11-14T03:13:22;33.20;;;14.25;;
50301;SDS011;36550;50.472;19.744;2022-11-14T03:16:07;35.68;;;16.00;;
50301;SDS011;36550;50.472;19.744;2022-11-14T03:18:54;39.03;;;16.25;;
50301;SDS011;36550;50.472;19.744;2022-11-14T03:21:38;37.50;;;16.15;;
50301;SDS011;36550;50.472;19.744;2022-11-14T03:24:23;35.28;;;14.63;;
50301;SDS011;36550;50.472;19.744;2022-11-14T03:27:07;33.25;;;13.80;;
50301;SDS011;36550;50.472;19.744;2022-11-14T03:29:51;28.73;;;12.98;;
50301;SDS011;36550;50.472;19.744;2022-11-14T03:32:35;37.53;;;15.85;;
50301;SDS011;36550;50.472;19.744;2022-11-14T03:35:20;29.92;;;13.30;;
50301;SDS011;36550;50.472;19.744;2022-11-14T03:38:04;33.45;;;15.53;;
50301;SDS011;36550;50.472;19.744;2022-11-14T03:40:49;31.93;;;14.38;;
50301;SDS011;36550;50.472;19.744;2022-11-14T03:43:35;31.42;;;13.72;;
50301;SDS011;36550;50.472;19.744;2022-11-14T03:46:19;30.27;;;13.05;;
50301;SDS011;36550;50.472;19.744;2022-11-14T03:49:03;32.63;;;14.53;;
50301;SDS011;36550;50.472;19.744;2022-11-14T03:51:48;35.63;;;15.72;;
50301;SDS011;36550;50.472;19.744;2022-11-14T03:54:33;29.95;;;13.65;;
50301;SDS011;36550;50.472;19.744;2022-11-14T03:57:17;28.70;;;12.82;;
50301;SDS011;36550;50.472;19.744;2022-11-14T04:00:02;30.20;;;13.00;;
50301;SDS011;36550;50.472;19.744;2022-11-14T04:02:47;32.07;;;13.77;;
50301;SDS011;36550;50.472;19.744;2022-11-14T04:05:31;34.50;;;14.70;;
50301;SDS011;36550;50.472;19.744;2022-11-14T04:08:16;34.63;;;14.78;;
50301;SDS011;36550;50.472;19.744;2022-11-14T04:11:00;35.15;;;15.40;;
50301;SDS011;36550;50.472;19.744;2022-11-14T04:13:45;32.58;;;13.70;;
50301;SDS011;36550;50.472;19.744;2022-11-14T04:16:29;32.60;;;14.15;;
50301;SDS011;36550;50.472;19.744;2022-11-14T04:19:13;28.15;;;13.20;;
50301;SDS011;36550;50.472;19.744;2022-11-14T04:21:58;31.57;;;13.25;;
50301;SDS011;36550;50.472;19.744;2022-11-14T04:24:42;30.60;;;12.70;;
50301;SDS011;36550;50.472;19.744;2022-11-14T04:27:26;34.30;;;16.02;;
50301;SDS011;36550;50.472;19.744;2022-11-14T04:30:11;36.48;;;15.00;;
50301;SDS011;36550;50.472;19.744;2022-11-14T04:32:55;34.90;;;14.68;;
50301;SDS011;36550;50.472;19.744;2022-11-14T04:35:39;32.28;;;14.23;;
50301;SDS011;36550;50.472;19.744;2022-11-14T04:38:24;35.90;;;14.63;;
50301;SDS011;36550;50.472;19.744;2022-11-14T04:41:08;31.70;;;14.87;;
50301;SDS011;36550;50.472;19.744;2022-11-14T04:43:53;37.45;;;16.27;;
50301;SDS011;36550;50.472;19.744;2022-11-14T04:46:37;43.20;;;17.85;;
50301;SDS011;36550;50.472;19.744;2022-11-14T04:49:21;33.02;;;14.65;;
50301;SDS011;36550;50.472;19.744;2022-11-14T04:52:06;34.08;;;14.28;;
50301;SDS011;36550;50.472;19.744;2022-11-14T04:54:50;31.57;;;14.35;;
50301;SDS011;36550;50.472;19.744;2022-11-14T04:57:34;32.38;;;14.03;;
50301;SDS011;36550;50.472;19.744;2022-11-14T05:00:19;40.75;;;17.37;;
50301;SDS011;36550;50.472;19.744;2022-11-14T05:03:03;36.95;;;16.42;;
50301;SDS011;36550;50.472;19.744;2022-11-14T05:05:48;35.70;;;15.98;;
50301;SDS011;36550;50.472;19.744;2022-11-14T05:08:32;34.50;;;14.13;;
50301;SDS011;36550;50.472;19.744;2022-11-14T05:11:18;30.85;;;14.18;;
50301;SDS011;36550;50.472;19.744;2022-11-14T05:14:03;32.90;;;15.13;;
50301;SDS011;36550;50.472;19.744;2022-11-14T05:16:47;41.28;;;16.90;;
50301;SDS011;36550;50.472;19.744;2022-11-14T05:19:32;33.85;;;15.23;;
50301;SDS011;36550;50.472;19.744;2022-11-14T05:22:16;30.62;;;13.08;;
50301;SDS011;36550;50.472;19.744;2022-11-14T05:25:00;38.08;;;15.70;;
50301;SDS011;36550;50.472;19.744;2022-11-14T05:27:45;37.85;;;15.83;;
50301;SDS011;36550;50.472;19.744;2022-11-14T05:30:29;40.67;;;15.72;;
50301;SDS011;36550;50.472;19.744;2022-11-14T05:33:13;35.43;;;14.78;;
50301;SDS011;36550;50.472;19.744;2022-11-14T05:36:08;30.85;;;12.90;;
50301;SDS011;36550;50.472;19.744;2022-11-14T05:38:50;35.88;;;15.28;;
50301;SDS011;36550;50.472;19.744;2022-11-14T05:41:35;32.50;;;14.55;;
50301;SDS011;36550;50.472;19.744;2022-11-14T05:44:19;35.83;;;14.85;;
50301;SDS011;36550;50.472;19.744;2022-11-14T05:47:04;42.75;;;16.90;;
50301;SDS011;36550;50.472;19.744;2022-11-14T05:49:48;41.88;;;16.45;;
50301;SDS011;36550;50.472;19.744;2022-11-14T05:52:32;36.17;;;15.32;;
50301;SDS011;36550;50.472;19.744;2022-11-14T05:55:17;32.40;;;14.75;;
50301;SDS011;36550;50.472;19.744;2022-11-14T05:58:01;32.35;;;14.50;;
50301;SDS011;36550;50.472;19.744;2022-11-14T06:00:45;37.33;;;15.15;;
50301;SDS011;36550;50.472;19.744;2022-11-14T06:03:31;29.40;;;13.25;;
50301;SDS011;36550;50.472;19.744;2022-11-14T06:06:21;31.45;;;13.98;;
50301;SDS011;36550;50.472;19.744;2022-11-14T06:09:05;31.40;;;13.83;;
50301;SDS011;36550;50.472;19.744;2022-11-14T06:11:49;33.20;;;14.98;;
50301;SDS011;36550;50.472;19.744;2022-11-14T06:14:34;33.05;;;13.65;;
50301;SDS011;36550;50.472;19.744;2022-11-14T06:17:18;31.17;;;13.43;;
50301;SDS011;36550;50.472;19.744;2022-11-14T06:20:02;30.27;;;13.28;;
50301;SDS011;36550;50.472;19.744;2022-11-14T06:22:50;24.50;;;11.27;;
50301;SDS011;36550;50.472;19.744;2022-11-14T06:25:38;26.35;;;12.15;;
50301;SDS011;36550;50.472;19.744;2022-11-14T06:28:23;23.20;;;10.43;;
50301;SDS011;36550;50.472;19.744;2022-11-14T06:31:07;20.80;;;10.05;;
50301;SDS011;36550;50.472;19.744;2022-11-14T06:33:51;20.72;;;10.45;;
50301;SDS011;36550;50.472;19.744;2022-11-14T06:36:36;18.32;;;9.20;;
50301;SDS011;36550;50.472;19.744;2022-11-14T06:39:21;18.55;;;8.85;;
50301;SDS011;36550;50.472;19.744;2022-11-14T06:42:06;17.45;;;8.18;;
50301;SDS011;36550;50.472;19.744;2022-11-14T06:44:50;16.40;;;8.05;;
50301;SDS011;36550;50.472;19.744;2022-11-14T06:47:35;14.68;;;7.10;;
50301;SDS011;36550;50.472;19.744;2022-11-14T06:50:19;14.50;;;6.92;;
50301;SDS011;36550;50.472;19.744;2022-11-14T06:53:04;16.42;;;7.97;;
50301;SDS011;36550;50.472;19.744;2022-11-14T06:55:55;19.07;;;8.23;;
50301;SDS011;36550;50.472;19.744;2022-11-14T06:58:47;14.25;;;7.30;;
50301;SDS011;36550;50.472;19.744;2022-11-14T07:01:33;12.13;;;6.80;;
50301;SDS011;36550;50.472;19.744;2022-11-14T07:04:17;11.38;;;6.10;;
50301;SDS011;36550;50.472;19.744;2022-11-14T07:07:01;11.55;;;5.87;;
50301;SDS011;36550;50.472;19.744;2022-11-14T07:09:46;9.05;;;5.20;;
50301;SDS011;36550;50.472;19.744;2022-11-14T07:12:30;9.83;;;5.42;;
50301;SDS011;36550;50.472;19.744;2022-11-14T07:15:15;10.68;;;5.60;;
50301;SDS011;36550;50.472;19.744;2022-11-14T07:18:00;9.93;;;5.17;;
50301;SDS011;36550;50.472;19.744;2022-11-14T07:20:44;12.63;;;6.42;;
50301;SDS011;36550;50.472;19.744;2022-11-14T07:23:30;13.57;;;6.93;;
50301;SDS011;36550;50.472;19.744;2022-11-14T07:26:16;15.08;;;7.42;;
50301;SDS011;36550;50.472;19.744;2022-11-14T07:29:00;12.47;;;6.28;;
50301;SDS011;36550;50.472;19.744;2022-11-14T07:31:45;13.62;;;6.17;;
50301;SDS011;36550;50.472;19.744;2022-11-14T07:34:29;13.20;;;7.12;;
50301;SDS011;36550;50.472;19.744;2022-11-14T07:37:14;13.32;;;6.90;;
50301;SDS011;36550;50.472;19.744;2022-11-14T07:39:58;15.65;;;8.33;;
50301;SDS011;36550;50.472;19.744;2022-11-14T07:42:43;13.40;;;7.10;;
50301;SDS011;36550;50.472;19.744;2022-11-14T07:45:27;15.68;;;6.62;;
50301;SDS011;36550;50.472;19.744;2022-11-14T07:48:12;14.53;;;7.33;;
50301;SDS011;36550;50.472;19.744;2022-11-14T07:51:04;12.13;;;6.42;;
50301;SDS011;36550;50.472;19.744;2022-11-14T07:53:52;13.80;;;7.30;;
50301;SDS011;36550;50.472;19.744;2022-11-14T07:56:36;14.83;;;7.95;;
50301;SDS011;36550;50.472;19.744;2022-11-14T07:59:20;14.60;;;7.60;;
50301;SDS011;36550;50.472;19.744;2022-11-14T08:02:05;13.35;;;7.35;;
50301;SDS011;36550;50.472;19.744;2022-11-14T08:04:49;12.90;;;6.80;;
50301;SDS011;36550;50.472;19.744;2022-11-14T08:07:33;13.25;;;6.78;;
50301;SDS011;36550;50.472;19.744;2022-11-14T08:10:17;15.43;;;7.75;;
50301;SDS011;36550;50.472;19.744;2022-11-14T08:13:03;14.40;;;7.85;;
50301;SDS011;36550;50.472;19.744;2022-11-14T08:15:48;15.83;;;7.95;;
50301;SDS011;36550;50.472;19.744;2022-11-14T08:18:33;13.80;;;7.15;;
50301;SDS011;36550;50.472;19.744;2022-11-14T08:21:17;15.00;;;7.33;;
50301;SDS011;36550;50.472;19.744;2022-11-14T08:24:01;13.95;;;6.92;;
50301;SDS011;36550;50.472;19.744;2022-11-14T08:26:46;15.43;;;7.80;;
50301;SDS011;36550;50.472;19.744;2022-11-14T08:29:30;15.55;;;8.08;;
50301;SDS011;36550;50.472;19.744;2022-11-14T08:32:14;18.35;;;8.58;;
50301;SDS011;36550;50.472;19.744;2022-11-14T08:34:59;14.75;;;6.65;;
50301;SDS011;36550;50.472;19.744;2022-11-14T08:37:44;16.35;;;7.35;;
50301;SDS011;36550;50.472;19.744;2022-11-14T08:40:28;15.03;;;7.55;;
50301;SDS011;36550;50.472;19.744;2022-11-14T08:43:13;18.45;;;8.53;;
50301;SDS011;36550;50.472;19.744;2022-11-14T08:46:00;19.80;;;9.83;;
50301;SDS011;36550;50.472;19.744;2022-11-14T08:48:47;16.65;;;7.53;;
50301;SDS011;36550;50.472;19.744;2022-11-14T08:51:32;15.60;;;7.50;;
50301;SDS011;36550;50.472;19.744;2022-11-14T08:54:16;15.35;;;7.30;;
50301;SDS011;36550;50.472;19.744;2022-11-14T08:57:00;15.88;;;7.92;;
50301;SDS011;36550;50.472;19.744;2022-11-14T08:59:44;18.23;;;8.53;;
50301;SDS011;36550;50.472;19.744;2022-11-14T09:02:32;21.35;;;9.38;;
50301;SDS011;36550;50.472;19.744;2022-11-14T09:05:16;14.47;;;7.28;;
50301;SDS011;36550;50.472;19.744;2022-11-14T09:08:00;17.55;;;8.03;;
50301;SDS011;36550;50.472;19.744;2022-11-14T09:10:46;15.03;;;8.25;;
50301;SDS011;36550;50.472;19.744;2022-11-14T09:13:30;21.07;;;10.10;;
50301;SDS011;36550;50.472;19.744;2022-11-14T09:16:16;26.73;;;11.20;;
50301;SDS011;36550;50.472;19.744;2022-11-14T09:19:01;24.40;;;11.45;;
50301;SDS011;36550;50.472;19.744;2022-11-14T09:21:45;24.77;;;12.13;;
50301;SDS011;36550;50.472;19.744;2022-11-14T09:24:29;23.77;;;9.75;;
50301;SDS011;36550;50.472;19.744;2022-11-14T09:27:13;22.95;;;11.18;;
50301;SDS011;36550;50.472;19.744;2022-11-14T09:29:58;23.12;;;10.72;;
50301;SDS011;36550;50.472;19.744;2022-11-14T09:32:42;23.12;;;10.88;;
50301;SDS011;36550;50.472;19.744;2022-11-14T09:35:27;27.48;;;12.82;;
50301;SDS011;36550;50.472;19.744;2022-11-14T09:38:13;25.08;;;13.30;;
50301;SDS011;36550;50.472;19.744;2022-11-14T09:47:26;31.93;;;16.60;;
50301;SDS011;36550;50.472;19.744;2022-11-14T09:50:14;37.48;;;18.20;;
50301;SDS011;36550;50.472;19.744;2022-11-14T09:53:18;37.33;;;19.50;;
50301;SDS011;36550;50.472;19.744;2022-11-14T09:56:11;34.67;;;16.45;;
50301;SDS011;36550;50.472;19.744;2022-11-14T09:58:57;25.55;;;13.15;;
50301;SDS011;36550;50.472;19.744;2022-11-14T10:04:55;30.62;;;14.10;;
50301;SDS011;36550;50.472;19.744;2022-11-14T10:11:11;25.17;;;11.88;;
50301;SDS011;36550;50.472;19.744;2022-11-14T10:20:47;26.93;;;11.08;;
50301;SDS011;36550;50.472;19.744;2022-11-14T10:23:58;22.67;;;10.08;;
50301;SDS011;36550;50.472;19.744;2022-11-14T10:27:03;27.80;;;11.08;;
50301;SDS011;36550;50.472;19.744;2022-11-14T10:30:09;23.18;;;11.48;;
50301;SDS011;36550;50.472;19.744;2022-11-14T10:33:08;24.87;;;13.08;;
50301;SDS011;36550;50.472;19.744;2022-11-14T10:35:55;30.77;;;14.93;;
50301;SDS011;36550;50.472;19.744;2022-11-14T10:39:00;27.80;;;13.80;;
50301;SDS011;36550;50.472;19.744;2022-11-14T10:41:58;28.00;;;14.10;;
50301;SDS011;36550;50.472;19.744;2022-11-14T10:44:50;29.20;;;15.40;;
50301;SDS011;36550;50.472;19.744;2022-11-14T10:47:43;47.23;;;22.70;;
50301;SDS011;36550;50.472;19.744;2022-11-14T10:50:37;47.62;;;25.57;;
50301;SDS011;36550;50.472;19.744;2022-11-14T10:53:27;30.27;;;17.32;;
50301;SDS011;36550;50.472;19.744;2022-11-14T10:56:48;24.07;;;12.15;;
50301;SDS011;36550;50.472;19.744;2022-11-14T10:59:35;28.87;;;13.18;;
50301;SDS011;36550;50.472;19.744;2022-11-14T11:02:19;29.25;;;12.80;;
50301;SDS011;36550;50.472;19.744;2022-11-14T11:05:10;29.55;;;13.30;;
50301;SDS011;36550;50.472;19.744;2022-11-14T11:07:58;41.28;;;22.35;;
50301;SDS011;36550;50.472;19.744;2022-11-14T11:11:01;49.27;;;23.85;;
50301;SDS011;36550;50.472;19.744;2022-11-14T11:14:04;38.10;;;18.55;;
50301;SDS011;36550;50.472;19.744;2022-11-14T11:16:48;36.17;;;17.10;;
50301;SDS011;36550;50.472;19.744;2022-11-14T11:19:41;37.25;;;18.02;;
50301;SDS011;36550;50.472;19.744;2022-11-14T11:22:28;49.18;;;23.65;;
50301;SDS011;36550;50.472;19.744;2022-11-14T11:25:24;32.13;;;16.12;;
50301;SDS011;36550;50.472;19.744;2022-11-14T11:28:12;27.95;;;15.00;;
50301;SDS011;36550;50.472;19.744;2022-11-14T11:31:03;33.73;;;18.23;;
50301;SDS011;36550;50.472;19.744;2022-11-14T11:33:50;31.40;;;16.20;;
50301;SDS011;36550;50.472;19.744;2022-11-14T11:36:37;35.17;;;17.70;;
50301;SDS011;36550;50.472;19.744;2022-11-14T11:39:28;33.30;;;16.55;;
50301;SDS011;36550;50.472;19.744;2022-11-14T11:42:20;26.85;;;14.58;;
50301;SDS011;36550;50.472;19.744;2022-11-14T11:45:15;43.33;;;25.32;;
50301;SDS011;36550;50.472;19.744;2022-11-14T11:48:07;29.95;;;13.98;;
50301;SDS011;36550;50.472;19.744;2022-11-14T11:51:02;26.48;;;12.43;;
50301;SDS011;36550;50.472;19.744;2022-11-14T11:54:00;27.27;;;12.00;;
50301;SDS011;36550;50.472;19.744;2022-11-14T11:56:42;36.28;;;16.67;;
50301;SDS011;36550;50.472;19.744;2022-11-14T12:02:24;29.50;;;14.70;;
50301;SDS011;36550;50.472;19.744;2022-11-14T12:05:14;31.60;;;13.83;;
50301;SDS011;36550;50.472;19.744;2022-11-14T12:08:30;26.02;;;13.48;;
50301;SDS011;36550;50.472;19.744;2022-11-14T12:11:13;27.50;;;13.58;;
50301;SDS011;36550;50.472;19.744;2022-11-14T12:20:41;37.48;;;18.12;;
50301;SDS011;36550;50.472;19.744;2022-11-14T12:26:47;27.50;;;12.18;;
50301;SDS011;36550;50.472;19.744;2022-11-14T12:32:54;27.25;;;12.98;;
50301;SDS011;36550;50.472;19.744;2022-11-14T12:35:47;43.15;;;21.50;;
50301;SDS011;36550;50.472;19.744;2022-11-14T12:38:49;43.13;;;19.80;;
50301;SDS011;36550;50.472;19.744;2022-11-14T12:41:36;38.98;;;20.40;;
50301;SDS011;36550;50.472;19.744;2022-11-14T12:47:19;43.95;;;22.40;;
50301;SDS011;36550;50.472;19.744;2022-11-14T12:50:26;55.33;;;28.75;;
50301;SDS011;36550;50.472;19.744;2022-11-14T12:56:25;33.53;;;16.57;;
50301;SDS011;36550;50.472;19.744;2022-11-14T12:59:19;45.45;;;20.32;;
50301;SDS011;36550;50.472;19.744;2022-11-14T13:02:21;49.93;;;22.70;;
50301;SDS011;36550;50.472;19.744;2022-11-14T13:11:44;37.05;;;15.85;;
50301;SDS011;36550;50.472;19.744;2022-11-14T13:18:29;42.30;;;18.40;;
50301;SDS011;36550;50.472;19.744;2022-11-14T13:21:26;40.25;;;15.80;;
50301;SDS011;36550;50.472;19.744;2022-11-14T13:25:31;39.75;;;17.35;;
50301;SDS011;36550;50.472;19.744;2022-11-14T13:27:45;78.65;;;40.63;;
50301;SDS011;36550;50.472;19.744;2022-11-14T13:31:04;93.05;;;48.28;;
50301;SDS011;36550;50.472;19.744;2022-11-14T13:43:52;118.13;;;71.35;;
50301;SDS011;36550;50.472;19.744;2022-11-14T13:47:02;73.07;;;34.92;;
50301;SDS011;36550;50.472;19.744;2022-11-14T13:50:07;81.60;;;31.05;;
50301;SDS011;36550;50.472;19.744;2022-11-14T13:53:01;65.67;;;23.90;;
50301;SDS011;36550;50.472;19.744;2022-11-14T13:59:04;62.45;;;24.90;;
50301;SDS011;36550;50.472;19.744;2022-11-14T14:05:17;144.80;;;52.85;;
50301;SDS011;36550;50.472;19.744;2022-11-14T14:08:13;54.67;;;21.30;;
50301;SDS011;36550;50.472;19.744;2022-11-14T14:11:26;47.65;;;20.30;;
50301;SDS011;36550;50.472;19.744;2022-11-14T14:14:17;57.27;;;21.50;;
50301;SDS011;36550;50.472;19.744;2022-11-14T14:17:14;48.52;;;20.88;;
50301;SDS011;36550;50.472;19.744;2022-11-14T14:26:52;51.18;;;21.50;;
50301;SDS011;36550;50.472;19.744;2022-11-14T14:33:12;46.18;;;19.85;;
50301;SDS011;36550;50.472;19.744;2022-11-14T14:35:57;57.05;;;24.87;;
50301;SDS011;36550;50.472;19.744;2022-11-14T14:38:43;47.55;;;20.30;;
50301;SDS011;36550;50.472;19.744;2022-11-14T14:41:29;43.55;;;17.62;;
50301;SDS011;36550;50.472;19.744;2022-11-14T14:44:29;43.83;;;17.57;;
50301;SDS011;36550;50.472;19.744;2022-11-14T14:50:34;40.33;;;16.97;;
50301;SDS011;36550;50.472;19.744;2022-11-14T14:53:26;78.17;;;35.55;;
50301;SDS011;36550;50.472;19.744;2022-11-14T14:56:20;49.15;;;21.50;;
50301;SDS011;36550;50.472;19.744;2022-11-14T14:59:20;63.95;;;30.37;;
50301;SDS011;36550;50.472;19.744;2022-11-14T15:02:16;55.23;;;24.37;;
50301;SDS011;36550;50.472;19.744;2022-11-14T15:05:00;68.57;;;32.20;;
50301;SDS011;36550;50.472;19.744;2022-11-14T15:07:46;65.67;;;30.25;;
50301;SDS011;36550;50.472;19.744;2022-11-14T15:10:32;49.98;;;23.92;;
50301;SDS011;36550;50.472;19.744;2022-11-14T15:13:16;61.05;;;29.52;;
50301;SDS011;36550;50.472;19.744;2022-11-14T15:16:02;78.78;;;39.90;;
50301;SDS011;36550;50.472;19.744;2022-11-14T15:18:49;41.35;;;19.17;;
50301;SDS011;36550;50.472;19.744;2022-11-14T15:21:36;38.55;;;17.95;;
50301;SDS011;36550;50.472;19.744;2022-11-14T15:24:21;59.75;;;27.35;;
50301;SDS011;36550;50.472;19.744;2022-11-14T15:27:11;43.28;;;19.20;;
50301;SDS011;36550;50.472;19.744;2022-11-14T15:30:02;37.88;;;16.77;;
50301;SDS011;36550;50.472;19.744;2022-11-14T15:32:50;35.20;;;14.35;;
50301;SDS011;36550;50.472;19.744;2022-11-14T15:35:40;30.12;;;13.85;;
50301;SDS011;36550;50.472;19.744;2022-11-14T15:38:25;30.20;;;13.98;;
50301;SDS011;36550;50.472;19.744;2022-11-14T15:41:23;43.30;;;21.95;;
50301;SDS011;36550;50.472;19.744;2022-11-14T15:44:27;54.55;;;24.37;;
50301;SDS011;36550;50.472;19.744;2022-11-14T15:47:28;58.25;;;26.15;;
50301;SDS011;36550;50.472;19.744;2022-11-14T15:50:33;71.45;;;33.45;;
50301;SDS011;36550;50.472;19.744;2022-11-14T15:53:22;45.63;;;20.48;;
50301;SDS011;36550;50.472;19.744;2022-11-14T15:56:10;41.48;;;22.35;;
50301;SDS011;36550;50.472;19.744;2022-11-14T15:58:56;35.75;;;16.60;;
50301;SDS011;36550;50.472;19.744;2022-11-14T16:01:41;34.78;;;16.07;;
50301;SDS011;36550;50.472;19.744;2022-11-14T16:04:33;36.50;;;17.12;;
50301;SDS011;36550;50.472;19.744;2022-11-14T16:07:17;37.15;;;17.75;;
50301;SDS011;36550;50.472;19.744;2022-11-14T16:10:02;38.73;;;18.63;;
50301;SDS011;36550;50.472;19.744;2022-11-14T16:12:49;58.38;;;28.30;;
50301;SDS011;36550;50.472;19.744;2022-11-14T16:15:33;48.45;;;22.00;;
50301;SDS011;36550;50.472;19.744;2022-11-14T16:21:03;75.70;;;34.08;;
50301;SDS011;36550;50.472;19.744;2022-11-14T16:23:48;92.97;;;39.00;;
50301;SDS011;36550;50.472;19.744;2022-11-14T16:26:33;111.92;;;45.83;;
50301;SDS011;36550;50.472;19.744;2022-11-14T16:29:17;47.20;;;22.25;;
50301;SDS011;36550;50.472;19.744;2022-11-14T16:32:01;38.58;;;16.62;;
50301;SDS011;36550;50.472;19.744;2022-11-14T16:34:46;32.42;;;15.15;;
50301;SDS011;36550;50.472;19.744;2022-11-14T16:37:30;32.65;;;15.43;;
50301;SDS011;36550;50.472;19.744;2022-11-14T16:40:19;36.05;;;18.27;;
50301;SDS011;36550;50.472;19.744;2022-11-14T16:43:11;33.33;;;16.40;;
50301;SDS011;36550;50.472;19.744;2022-11-14T16:45:57;36.93;;;17.50;;
50301;SDS011;36550;50.472;19.744;2022-11-14T16:48:47;33.90;;;15.48;;
50301;SDS011;36550;50.472;19.744;2022-11-14T16:51:32;34.60;;;16.77;;
50301;SDS011;36550;50.472;19.744;2022-11-14T16:54:18;33.28;;;15.90;;
50301;SDS011;36550;50.472;19.744;2022-11-14T16:57:02;39.53;;;18.20;;
50301;SDS011;36550;50.472;19.744;2022-11-14T16:59:47;35.55;;;16.25;;
50301;SDS011;36550;50.472;19.744;2022-11-14T17:02:31;60.70;;;29.10;;
50301;SDS011;36550;50.472;19.744;2022-11-14T17:05:15;71.85;;;33.50;;
50301;SDS011;36550;50.472;19.744;2022-11-14T17:08:00;83.58;;;38.42;;
50301;SDS011;36550;50.472;19.744;2022-11-14T17:10:45;61.05;;;28.40;;
50301;SDS011;36550;50.472;19.744;2022-11-14T17:13:29;52.60;;;26.17;;
50301;SDS011;36550;50.472;19.744;2022-11-14T17:16:15;38.63;;;16.85;;
50301;SDS011;36550;50.472;19.744;2022-11-14T17:19:01;36.00;;;16.48;;
50301;SDS011;36550;50.472;19.744;2022-11-14T17:21:45;36.63;;;18.27;;
50301;SDS011;36550;50.472;19.744;2022-11-14T17:24:29;35.30;;;15.85;;
50301;SDS011;36550;50.472;19.744;2022-11-14T17:27:14;53.83;;;27.45;;
50301;SDS011;36550;50.472;19.744;2022-11-14T17:29:58;42.90;;;19.82;;
50301;SDS011;36550;50.472;19.744;2022-11-14T17:32:43;54.42;;;26.85;;
50301;SDS011;36550;50.472;19.744;2022-11-14T17:35:27;39.78;;;21.27;;